sensor_id;sensor_type;location;lat;lon;timestamp;P1;durP1;ratioP1;P2;durP2;ratioP2
74614;SDS011;63121;51.458;-0.110;2023-02-15T00:01:38;33.30;;;14.57;;
74614;SDS011;63121;51.458;-0.110;2023-02-15T00:04:05;35.28;;;14.75;;
74614;SDS011;63121;51.458;-0.110;2023-02-15T00:06:32;29.75;;;13.85;;
74614;SDS011;63121;51.458;-0.110;2023-02-15T00:08:58;29.33;;;13.13;;
74614;SDS011;63121;51.458;-0.110;2023-02-15T00:11:24;34.40;;;14.15;;
74614;SDS011;63121;51.458;-0.110;2023-02-15T00:14:14;33.45;;;14.18;;
74614;SDS011;63121;51.458;-0.110;2023-02-15T00:16:40;28.98;;;13.68;;
74614;SDS011;63121;51.458;-0.110;2023-02-15T00:19:08;35.22;;;14.77;;
74614;SDS011;63121;51.458;-0.110;2023-02-15T00:21:34;35.78;;;14.73;;
74614;SDS011;63121;51.458;-0.110;2023-02-15T00:24:01;29.95;;;13.45;;
74614;SDS011;63121;51.458;-0.110;2023-02-15T00:26:28;33.90;;;14.77;;
74614;SDS011;63121;51.458;-0.110;2023-02-15T00:28:55;35.72;;;14.25;;
74614;SDS011;63121;51.458;-0.110;2023-02-15T00:31:21;34.13;;;13.55;;
74614;SDS011;63121;51.458;-0.110;2023-02-15T00:33:46;30.33;;;12.52;;
74614;SDS011;63121;51.458;-0.110;2023-02-15T00:36:12;29.30;;;13.70;;
74614;SDS011;63121;51.458;-0.110;2023-02-15T00:38:38;35.90;;;13.73;;
74614;SDS011;63121;51.458;-0.110;2023-02-15T00:41:04;32.88;;;12.75;;
74614;SDS011;63121;51.458;-0.110;2023-02-15T00:43:32;33.80;;;13.93;;
74614;SDS011;63121;51.458;-0.110;2023-02-15T00:45:58;32.72;;;14.15;;
74614;SDS011;63121;51.458;-0.110;2023-02-15T00:48:24;33.53;;;13.80;;
74614;SDS011;63121;51.458;-0.110;2023-02-15T00:50:51;28.92;;;12.48;;
74614;SDS011;63121;51.458;-0.110;2023-02-15T00:53:19;33.78;;;13.43;;
74614;SDS011;63121;51.458;-0.110;2023-02-15T00:55:45;32.13;;;13.23;;
74614;SDS011;63121;51.458;-0.110;2023-02-15T00:58:11;27.92;;;12.18;;
74614;SDS011;63121;51.458;-0.110;2023-02-15T01:00:37;33.38;;;12.43;;
74614;SDS011;63121;51.458;-0.110;2023-02-15T01:03:04;33.13;;;13.68;;
74614;SDS011;63121;51.458;-0.110;2023-02-15T01:05:30;31.40;;;12.90;;
74614;SDS011;63121;51.458;-0.110;2023-02-15T01:07:57;29.38;;;12.80;;
74614;SDS011;63121;51.458;-0.110;2023-02-15T01:10:23;30.67;;;12.45;;
74614;SDS011;63121;51.458;-0.110;2023-02-15T01:12:49;32.30;;;12.52;;
74614;SDS011;63121;51.458;-0.110;2023-02-15T01:15:15;29.38;;;12.30;;
74614;SDS011;63121;51.458;-0.110;2023-02-15T01:17:41;29.77;;;13.23;;
74614;SDS011;63121;51.458;-0.110;2023-02-15T01:20:07;27.63;;;12.48;;
74614;SDS011;63121;51.458;-0.110;2023-02-15T01:22:33;31.67;;;12.68;;
74614;SDS011;63121;51.458;-0.110;2023-02-15T01:24:58;28.58;;;12.57;;
74614;SDS011;63121;51.458;-0.110;2023-02-15T01:27:23;27.25;;;11.93;;
74614;SDS011;63121;51.458;-0.110;2023-02-15T01:29:49;26.40;;;11.50;;
74614;SDS011;63121;51.458;-0.110;2023-02-15T01:32:14;31.30;;;12.93;;
74614;SDS011;63121;51.458;-0.110;2023-02-15T01:34:39;29.25;;;12.52;;
74614;SDS011;63121;51.458;-0.110;2023-02-15T01:37:05;29.83;;;12.40;;
74614;SDS011;63121;51.458;-0.110;2023-02-15T01:39:30;31.30;;;12.73;;
74614;SDS011;63121;51.458;-0.110;2023-02-15T01:41:55;28.93;;;12.23;;
74614;SDS011;63121;51.458;-0.110;2023-02-15T01:47:22;29.45;;;12.20;;
74614;SDS011;63121;51.458;-0.110;2023-02-15T01:52:33;29.00;;;12.25;;
74614;SDS011;63121;51.458;-0.110;2023-02-15T01:55:01;29.95;;;12.43;;
74614;SDS011;63121;51.458;-0.110;2023-02-15T01:57:27;27.13;;;11.38;;
74614;SDS011;63121;51.458;-0.110;2023-02-15T01:59:56;29.30;;;11.95;;
74614;SDS011;63121;51.458;-0.110;2023-02-15T02:02:25;29.08;;;11.57;;
74614;SDS011;63121;51.458;-0.110;2023-02-15T02:04:54;28.10;;;12.95;;
74614;SDS011;63121;51.458;-0.110;2023-02-15T02:07:24;29.55;;;12.52;;
74614;SDS011;63121;51.458;-0.110;2023-02-15T02:09:52;26.23;;;11.07;;
74614;SDS011;63121;51.458;-0.110;2023-02-15T02:12:18;29.20;;;12.07;;
74614;SDS011;63121;51.458;-0.110;2023-02-15T02:14:46;28.13;;;12.63;;
74614;SDS011;63121;51.458;-0.110;2023-02-15T02:25:39;24.60;;;11.02;;
74614;SDS011;63121;51.458;-0.110;2023-02-15T02:31:12;28.05;;;11.15;;
74614;SDS011;63121;51.458;-0.110;2023-02-15T02:34:19;27.15;;;11.63;;
74614;SDS011;63121;51.458;-0.110;2023-02-15T02:44:40;31.83;;;11.77;;
74614;SDS011;63121;51.458;-0.110;2023-02-15T02:49:51;31.98;;;12.23;;
74614;SDS011;63121;51.458;-0.110;2023-02-15T02:55:05;29.75;;;11.90;;
74614;SDS011;63121;51.458;-0.110;2023-02-15T02:57:55;29.55;;;12.68;;
74614;SDS011;63121;51.458;-0.110;2023-02-15T03:00:27;33.65;;;13.00;;
74614;SDS011;63121;51.458;-0.110;2023-02-15T03:03:00;31.77;;;12.18;;
74614;SDS011;63121;51.458;-0.110;2023-02-15T03:05:33;30.15;;;11.48;;
74614;SDS011;63121;51.458;-0.110;2023-02-15T03:08:02;30.58;;;12.40;;
74614;SDS011;63121;51.458;-0.110;2023-02-15T03:10:31;31.55;;;12.90;;
74614;SDS011;63121;51.458;-0.110;2023-02-15T03:12:58;28.88;;;12.70;;
74614;SDS011;63121;51.458;-0.110;2023-02-15T03:15:25;28.25;;;12.40;;
74614;SDS011;63121;51.458;-0.110;2023-02-15T03:18:14;28.38;;;12.25;;
74614;SDS011;63121;51.458;-0.110;2023-02-15T03:20:43;30.88;;;12.27;;
74614;SDS011;63121;51.458;-0.110;2023-02-15T03:23:13;32.28;;;13.07;;
74614;SDS011;63121;51.458;-0.110;2023-02-15T03:25:44;30.98;;;12.45;;
74614;SDS011;63121;51.458;-0.110;2023-02-15T03:28:18;29.73;;;12.15;;
74614;SDS011;63121;51.458;-0.110;2023-02-15T03:30:48;28.90;;;11.50;;
74614;SDS011;63121;51.458;-0.110;2023-02-15T03:33:18;32.45;;;12.73;;
74614;SDS011;63121;51.458;-0.110;2023-02-15T03:38:20;27.02;;;12.52;;
74614;SDS011;63121;51.458;-0.110;2023-02-15T03:40:50;26.98;;;11.95;;
74614;SDS011;63121;51.458;-0.110;2023-02-15T03:48:47;26.52;;;12.18;;
74614;SDS011;63121;51.458;-0.110;2023-02-15T03:51:18;26.50;;;11.50;;
74614;SDS011;63121;51.458;-0.110;2023-02-15T03:53:59;26.55;;;11.75;;
74614;SDS011;63121;51.458;-0.110;2023-02-15T03:56:27;28.40;;;11.50;;
74614;SDS011;63121;51.458;-0.110;2023-02-15T03:58:52;34.80;;;13.00;;
74614;SDS011;63121;51.458;-0.110;2023-02-15T04:01:40;28.60;;;12.75;;
74614;SDS011;63121;51.458;-0.110;2023-02-15T04:04:34;27.48;;;11.43;;
74614;SDS011;63121;51.458;-0.110;2023-02-15T04:07:04;31.10;;;12.50;;
74614;SDS011;63121;51.458;-0.110;2023-02-15T04:09:32;33.67;;;13.27;;
74614;SDS011;63121;51.458;-0.110;2023-02-15T04:12:35;31.20;;;12.40;;
74614;SDS011;63121;51.458;-0.110;2023-02-15T04:15:01;31.80;;;12.17;;
74614;SDS011;63121;51.458;-0.110;2023-02-15T04:17:45;30.58;;;12.43;;
74614;SDS011;63121;51.458;-0.110;2023-02-15T04:20:10;36.47;;;15.20;;
74614;SDS011;63121;51.458;-0.110;2023-02-15T04:22:54;35.10;;;13.90;;
74614;SDS011;63121;51.458;-0.110;2023-02-15T04:25:38;36.45;;;14.18;;
74614;SDS011;63121;51.458;-0.110;2023-02-15T04:28:04;34.08;;;14.45;;
74614;SDS011;63121;51.458;-0.110;2023-02-15T04:30:29;39.50;;;15.73;;
74614;SDS011;63121;51.458;-0.110;2023-02-15T04:32:54;38.63;;;15.83;;
74614;SDS011;63121;51.458;-0.110;2023-02-15T04:37:47;38.93;;;14.83;;
74614;SDS011;63121;51.458;-0.110;2023-02-15T04:40:13;38.70;;;15.05;;
74614;SDS011;63121;51.458;-0.110;2023-02-15T04:42:39;36.63;;;14.95;;
74614;SDS011;63121;51.458;-0.110;2023-02-15T04:45:05;37.38;;;15.40;;
74614;SDS011;63121;51.458;-0.110;2023-02-15T04:47:31;40.72;;;15.43;;
74614;SDS011;63121;51.458;-0.110;2023-02-15T04:49:57;38.97;;;15.60;;
74614;SDS011;63121;51.458;-0.110;2023-02-15T04:52:22;38.87;;;15.23;;
74614;SDS011;63121;51.458;-0.110;2023-02-15T04:54:48;35.70;;;15.07;;
74614;SDS011;63121;51.458;-0.110;2023-02-15T04:57:13;39.47;;;16.90;;
74614;SDS011;63121;51.458;-0.110;2023-02-15T04:59:39;40.75;;;16.50;;
74614;SDS011;63121;51.458;-0.110;2023-02-15T05:02:04;49.10;;;18.65;;
74614;SDS011;63121;51.458;-0.110;2023-02-15T05:04:29;45.87;;;18.23;;
74614;SDS011;63121;51.458;-0.110;2023-02-15T05:06:55;51.53;;;20.00;;
74614;SDS011;63121;51.458;-0.110;2023-02-15T05:09:20;48.73;;;18.90;;
74614;SDS011;63121;51.458;-0.110;2023-02-15T05:11:46;48.35;;;19.48;;
74614;SDS011;63121;51.458;-0.110;2023-02-15T05:14:11;45.38;;;18.45;;
74614;SDS011;63121;51.458;-0.110;2023-02-15T05:16:37;48.40;;;18.45;;
74614;SDS011;63121;51.458;-0.110;2023-02-15T05:19:02;50.72;;;19.75;;
74614;SDS011;63121;51.458;-0.110;2023-02-15T05:21:28;46.38;;;18.13;;
74614;SDS011;63121;51.458;-0.110;2023-02-15T05:23:53;48.97;;;18.63;;
74614;SDS011;63121;51.458;-0.110;2023-02-15T05:26:20;47.03;;;18.52;;
74614;SDS011;63121;51.458;-0.110;2023-02-15T05:29:05;44.80;;;18.08;;
74614;SDS011;63121;51.458;-0.110;2023-02-15T05:31:31;46.05;;;18.70;;
74614;SDS011;63121;51.458;-0.110;2023-02-15T05:33:57;50.25;;;18.27;;
74614;SDS011;63121;51.458;-0.110;2023-02-15T05:36:22;44.92;;;19.02;;
74614;SDS011;63121;51.458;-0.110;2023-02-15T05:38:48;45.00;;;17.98;;
74614;SDS011;63121;51.458;-0.110;2023-02-15T05:41:13;47.42;;;18.60;;
74614;SDS011;63121;51.458;-0.110;2023-02-15T05:43:39;45.50;;;17.80;;
74614;SDS011;63121;51.458;-0.110;2023-02-15T05:46:05;42.30;;;17.90;;
74614;SDS011;63121;51.458;-0.110;2023-02-15T05:48:31;47.20;;;18.38;;
74614;SDS011;63121;51.458;-0.110;2023-02-15T05:51:00;45.35;;;18.20;;
74614;SDS011;63121;51.458;-0.110;2023-02-15T05:53:26;42.78;;;16.77;;
74614;SDS011;63121;51.458;-0.110;2023-02-15T05:55:53;42.97;;;17.13;;
74614;SDS011;63121;51.458;-0.110;2023-02-15T05:58:19;44.58;;;18.45;;
74614;SDS011;63121;51.458;-0.110;2023-02-15T06:00:45;42.60;;;17.92;;
74614;SDS011;63121;51.458;-0.110;2023-02-15T06:03:10;49.38;;;17.48;;
74614;SDS011;63121;51.458;-0.110;2023-02-15T06:05:35;43.90;;;17.70;;
74614;SDS011;63121;51.458;-0.110;2023-02-15T06:08:01;44.40;;;16.60;;
74614;SDS011;63121;51.458;-0.110;2023-02-15T06:10:26;44.50;;;17.20;;
74614;SDS011;63121;51.458;-0.110;2023-02-15T06:12:51;45.03;;;17.65;;
74614;SDS011;63121;51.458;-0.110;2023-02-15T06:15:17;44.60;;;17.93;;
74614;SDS011;63121;51.458;-0.110;2023-02-15T06:17:42;42.20;;;18.10;;
74614;SDS011;63121;51.458;-0.110;2023-02-15T06:20:08;45.65;;;17.77;;
74614;SDS011;63121;51.458;-0.110;2023-02-15T06:22:34;51.50;;;18.80;;
74614;SDS011;63121;51.458;-0.110;2023-02-15T06:24:59;45.03;;;17.08;;
74614;SDS011;63121;51.458;-0.110;2023-02-15T06:27:24;52.22;;;18.67;;
74614;SDS011;63121;51.458;-0.110;2023-02-15T06:29:50;48.97;;;19.73;;
74614;SDS011;63121;51.458;-0.110;2023-02-15T06:32:15;43.93;;;17.77;;
74614;SDS011;63121;51.458;-0.110;2023-02-15T06:34:40;54.63;;;18.93;;
74614;SDS011;63121;51.458;-0.110;2023-02-15T06:37:06;49.67;;;19.00;;
74614;SDS011;63121;51.458;-0.110;2023-02-15T06:39:33;50.83;;;19.63;;
74614;SDS011;63121;51.458;-0.110;2023-02-15T06:41:58;51.72;;;21.13;;
74614;SDS011;63121;51.458;-0.110;2023-02-15T06:44:24;51.60;;;19.80;;
74614;SDS011;63121;51.458;-0.110;2023-02-15T06:46:49;50.50;;;18.38;;
74614;SDS011;63121;51.458;-0.110;2023-02-15T06:49:15;45.88;;;18.60;;
74614;SDS011;63121;51.458;-0.110;2023-02-15T06:51:40;48.22;;;18.38;;
74614;SDS011;63121;51.458;-0.110;2023-02-15T06:54:05;49.25;;;19.35;;
74614;SDS011;63121;51.458;-0.110;2023-02-15T06:56:31;44.15;;;18.88;;
74614;SDS011;63121;51.458;-0.110;2023-02-15T06:58:56;45.55;;;17.65;;
74614;SDS011;63121;51.458;-0.110;2023-02-15T07:01:21;44.88;;;18.33;;
74614;SDS011;63121;51.458;-0.110;2023-02-15T07:03:47;44.20;;;18.77;;
74614;SDS011;63121;51.458;-0.110;2023-02-15T07:06:12;45.20;;;17.87;;
74614;SDS011;63121;51.458;-0.110;2023-02-15T07:08:38;47.75;;;18.45;;
74614;SDS011;63121;51.458;-0.110;2023-02-15T07:11:04;46.08;;;18.58;;
74614;SDS011;63121;51.458;-0.110;2023-02-15T07:13:49;50.78;;;17.95;;
74614;SDS011;63121;51.458;-0.110;2023-02-15T07:16:15;45.33;;;18.42;;
74614;SDS011;63121;51.458;-0.110;2023-02-15T07:18:40;41.27;;;15.70;;
74614;SDS011;63121;51.458;-0.110;2023-02-15T07:21:05;44.17;;;17.20;;
74614;SDS011;63121;51.458;-0.110;2023-02-15T07:25:59;39.53;;;15.85;;
74614;SDS011;63121;51.458;-0.110;2023-02-15T07:28:26;45.90;;;18.45;;
74614;SDS011;63121;51.458;-0.110;2023-02-15T07:30:52;42.17;;;17.05;;
74614;SDS011;63121;51.458;-0.110;2023-02-15T07:33:17;40.75;;;17.50;;
74614;SDS011;63121;51.458;-0.110;2023-02-15T07:35:53;45.05;;;17.85;;
74614;SDS011;63121;51.458;-0.110;2023-02-15T07:38:20;48.47;;;18.92;;
74614;SDS011;63121;51.458;-0.110;2023-02-15T07:40:46;46.55;;;17.83;;
74614;SDS011;63121;51.458;-0.110;2023-02-15T07:43:11;52.13;;;19.80;;
74614;SDS011;63121;51.458;-0.110;2023-02-15T07:45:37;46.67;;;18.75;;
74614;SDS011;63121;51.458;-0.110;2023-02-15T07:48:02;40.00;;;17.85;;
74614;SDS011;63121;51.458;-0.110;2023-02-15T07:50:28;47.92;;;18.92;;
74614;SDS011;63121;51.458;-0.110;2023-02-15T07:52:54;51.08;;;20.83;;
74614;SDS011;63121;51.458;-0.110;2023-02-15T07:55:20;51.80;;;21.10;;
74614;SDS011;63121;51.458;-0.110;2023-02-15T07:57:46;56.15;;;21.25;;
74614;SDS011;63121;51.458;-0.110;2023-02-15T08:00:13;51.90;;;19.83;;
74614;SDS011;63121;51.458;-0.110;2023-02-15T08:02:40;54.75;;;20.08;;
74614;SDS011;63121;51.458;-0.110;2023-02-15T08:05:06;50.65;;;20.13;;
74614;SDS011;63121;51.458;-0.110;2023-02-15T08:07:32;53.83;;;21.52;;
74614;SDS011;63121;51.458;-0.110;2023-02-15T08:09:58;54.35;;;21.58;;
74614;SDS011;63121;51.458;-0.110;2023-02-15T08:12:25;52.17;;;20.20;;
74614;SDS011;63121;51.458;-0.110;2023-02-15T08:14:52;47.22;;;19.35;;
74614;SDS011;63121;51.458;-0.110;2023-02-15T08:17:17;46.80;;;19.57;;
74614;SDS011;63121;51.458;-0.110;2023-02-15T08:19:43;48.83;;;19.92;;
74614;SDS011;63121;51.458;-0.110;2023-02-15T08:22:11;48.47;;;19.35;;
74614;SDS011;63121;51.458;-0.110;2023-02-15T08:24:38;43.30;;;18.52;;
74614;SDS011;63121;51.458;-0.110;2023-02-15T08:27:04;44.53;;;18.65;;
74614;SDS011;63121;51.458;-0.110;2023-02-15T08:29:31;44.25;;;18.88;;
74614;SDS011;63121;51.458;-0.110;2023-02-15T08:31:59;46.83;;;19.35;;
74614;SDS011;63121;51.458;-0.110;2023-02-15T08:34:28;45.63;;;18.48;;
74614;SDS011;63121;51.458;-0.110;2023-02-15T08:36:56;43.72;;;18.15;;
74614;SDS011;63121;51.458;-0.110;2023-02-15T08:39:21;44.45;;;18.00;;
74614;SDS011;63121;51.458;-0.110;2023-02-15T08:41:47;46.55;;;18.45;;
74614;SDS011;63121;51.458;-0.110;2023-02-15T08:44:14;44.67;;;19.08;;
74614;SDS011;63121;51.458;-0.110;2023-02-15T08:46:41;46.10;;;18.73;;
74614;SDS011;63121;51.458;-0.110;2023-02-15T08:49:17;45.13;;;18.13;;
74614;SDS011;63121;51.458;-0.110;2023-02-15T08:51:45;48.28;;;18.20;;
74614;SDS011;63121;51.458;-0.110;2023-02-15T08:54:14;42.55;;;18.55;;
74614;SDS011;63121;51.458;-0.110;2023-02-15T08:56:42;45.13;;;17.98;;
74614;SDS011;63121;51.458;-0.110;2023-02-15T08:59:15;44.83;;;19.45;;
74614;SDS011;63121;51.458;-0.110;2023-02-15T09:01:43;47.08;;;18.25;;
74614;SDS011;63121;51.458;-0.110;2023-02-15T09:04:09;44.20;;;18.80;;
74614;SDS011;63121;51.458;-0.110;2023-02-15T09:06:35;47.45;;;17.50;;
74614;SDS011;63121;51.458;-0.110;2023-02-15T09:09:02;42.10;;;17.35;;
74614;SDS011;63121;51.458;-0.110;2023-02-15T09:11:29;40.13;;;16.83;;
74614;SDS011;63121;51.458;-0.110;2023-02-15T09:13:56;38.70;;;16.27;;
74614;SDS011;63121;51.458;-0.110;2023-02-15T09:16:25;38.22;;;17.60;;
74614;SDS011;63121;51.458;-0.110;2023-02-15T09:18:52;41.40;;;17.38;;
74614;SDS011;63121;51.458;-0.110;2023-02-15T09:21:19;42.50;;;17.42;;
74614;SDS011;63121;51.458;-0.110;2023-02-15T09:23:47;46.15;;;17.88;;
74614;SDS011;63121;51.458;-0.110;2023-02-15T09:26:15;37.95;;;16.35;;
74614;SDS011;63121;51.458;-0.110;2023-02-15T09:28:42;37.05;;;16.27;;
74614;SDS011;63121;51.458;-0.110;2023-02-15T09:31:12;42.67;;;16.50;;
74614;SDS011;63121;51.458;-0.110;2023-02-15T09:33:40;45.05;;;18.00;;
74614;SDS011;63121;51.458;-0.110;2023-02-15T09:36:13;41.50;;;18.00;;
74614;SDS011;63121;51.458;-0.110;2023-02-15T09:38:41;39.50;;;16.40;;
74614;SDS011;63121;51.458;-0.110;2023-02-15T09:41:16;39.95;;;17.67;;
74614;SDS011;63121;51.458;-0.110;2023-02-15T09:46:47;41.40;;;16.42;;
74614;SDS011;63121;51.458;-0.110;2023-02-15T09:52:13;37.63;;;16.40;;
74614;SDS011;63121;51.458;-0.110;2023-02-15T10:27:11;23.77;;;10.52;;
74614;SDS011;63121;51.458;-0.110;2023-02-15T10:29:39;24.52;;;10.25;;
74614;SDS011;63121;51.458;-0.110;2023-02-15T10:35:07;24.15;;;10.60;;
74614;SDS011;63121;51.458;-0.110;2023-02-15T10:43:10;26.52;;;11.90;;
74614;SDS011;63121;51.458;-0.110;2023-02-15T10:51:01;25.10;;;10.43;;
74614;SDS011;63121;51.458;-0.110;2023-02-15T11:07:16;24.80;;;9.43;;
74614;SDS011;63121;51.458;-0.110;2023-02-15T11:09:52;20.65;;;8.30;;
74614;SDS011;63121;51.458;-0.110;2023-02-15T11:12:26;19.88;;;8.38;;
74614;SDS011;63121;51.458;-0.110;2023-02-15T11:17:39;19.00;;;8.63;;
74614;SDS011;63121;51.458;-0.110;2023-02-15T11:20:17;22.83;;;9.68;;
74614;SDS011;63121;51.458;-0.110;2023-02-15T11:22:44;21.70;;;8.73;;
74614;SDS011;63121;51.458;-0.110;2023-02-15T11:25:20;25.23;;;9.57;;
74614;SDS011;63121;51.458;-0.110;2023-02-15T11:27:50;21.92;;;8.95;;
74614;SDS011;63121;51.458;-0.110;2023-02-15T11:30:21;18.73;;;7.82;;
74614;SDS011;63121;51.458;-0.110;2023-02-15T11:32:53;17.38;;;7.53;;
74614;SDS011;63121;51.458;-0.110;2023-02-15T11:38:05;17.83;;;8.20;;
74614;SDS011;63121;51.458;-0.110;2023-02-15T11:40:49;19.25;;;7.55;;
74614;SDS011;63121;51.458;-0.110;2023-02-15T11:46:03;17.20;;;7.80;;
74614;SDS011;63121;51.458;-0.110;2023-02-15T11:48:29;20.48;;;7.82;;
74614;SDS011;63121;51.458;-0.110;2023-02-15T11:50:56;27.45;;;7.78;;
74614;SDS011;63121;51.458;-0.110;2023-02-15T11:53:22;17.92;;;7.35;;
74614;SDS011;63121;51.458;-0.110;2023-02-15T11:55:52;20.85;;;7.50;;
74614;SDS011;63121;51.458;-0.110;2023-02-15T12:03:51;18.67;;;6.75;;
74614;SDS011;63121;51.458;-0.110;2023-02-15T12:09:02;20.63;;;7.50;;
74614;SDS011;63121;51.458;-0.110;2023-02-15T12:11:36;17.55;;;7.15;;
74614;SDS011;63121;51.458;-0.110;2023-02-15T12:14:05;17.67;;;6.90;;
74614;SDS011;63121;51.458;-0.110;2023-02-15T12:16:45;19.25;;;7.20;;
74614;SDS011;63121;51.458;-0.110;2023-02-15T12:21:58;27.42;;;8.00;;
74614;SDS011;63121;51.458;-0.110;2023-02-15T12:24:30;17.25;;;7.10;;
74614;SDS011;63121;51.458;-0.110;2023-02-15T12:26:58;14.57;;;6.60;;
74614;SDS011;63121;51.458;-0.110;2023-02-15T12:29:27;15.63;;;6.45;;
74614;SDS011;63121;51.458;-0.110;2023-02-15T12:31:59;17.05;;;6.22;;
74614;SDS011;63121;51.458;-0.110;2023-02-15T12:37:00;14.82;;;6.55;;
74614;SDS011;63121;51.458;-0.110;2023-02-15T12:39:33;15.15;;;6.13;;
74614;SDS011;63121;51.458;-0.110;2023-02-15T12:41:59;15.52;;;5.93;;
74614;SDS011;63121;51.458;-0.110;2023-02-15T12:44:34;16.00;;;6.82;;
74614;SDS011;63121;51.458;-0.110;2023-02-15T12:47:05;15.98;;;5.72;;
74614;SDS011;63121;51.458;-0.110;2023-02-15T12:49:43;18.58;;;5.78;;
74614;SDS011;63121;51.458;-0.110;2023-02-15T12:54:45;15.60;;;6.00;;
74614;SDS011;63121;51.458;-0.110;2023-02-15T12:57:28;16.40;;;6.15;;
74614;SDS011;63121;51.458;-0.110;2023-02-15T13:02:29;15.27;;;5.88;;
74614;SDS011;63121;51.458;-0.110;2023-02-15T13:05:05;18.13;;;5.82;;
74614;SDS011;63121;51.458;-0.110;2023-02-15T13:07:33;11.65;;;5.32;;
74614;SDS011;63121;51.458;-0.110;2023-02-15T13:09:58;16.50;;;5.95;;
74614;SDS011;63121;51.458;-0.110;2023-02-15T13:12:28;13.60;;;4.68;;
74614;SDS011;63121;51.458;-0.110;2023-02-15T13:14:58;12.75;;;4.80;;
74614;SDS011;63121;51.458;-0.110;2023-02-15T13:17:27;13.65;;;4.72;;
74614;SDS011;63121;51.458;-0.110;2023-02-15T13:20:18;16.30;;;5.35;;
74614;SDS011;63121;51.458;-0.110;2023-02-15T13:22:50;13.60;;;5.28;;
74614;SDS011;63121;51.458;-0.110;2023-02-15T13:25:19;14.30;;;5.00;;
74614;SDS011;63121;51.458;-0.110;2023-02-15T13:27:48;13.57;;;5.22;;
74614;SDS011;63121;51.458;-0.110;2023-02-15T13:30:32;16.92;;;4.78;;
74614;SDS011;63121;51.458;-0.110;2023-02-15T13:33:04;14.25;;;4.78;;
74614;SDS011;63121;51.458;-0.110;2023-02-15T13:35:43;11.98;;;4.80;;
74614;SDS011;63121;51.458;-0.110;2023-02-15T13:41:00;12.85;;;4.57;;
74614;SDS011;63121;51.458;-0.110;2023-02-15T13:43:35;13.82;;;4.28;;
74614;SDS011;63121;51.458;-0.110;2023-02-15T13:49:03;12.60;;;4.32;;
74614;SDS011;63121;51.458;-0.110;2023-02-15T13:59:39;18.73;;;4.82;;
74614;SDS011;63121;51.458;-0.110;2023-02-15T14:11:06;12.13;;;4.03;;
74614;SDS011;63121;51.458;-0.110;2023-02-15T14:13:42;12.95;;;4.00;;
74614;SDS011;63121;51.458;-0.110;2023-02-15T14:18:57;12.70;;;4.13;;
74614;SDS011;63121;51.458;-0.110;2023-02-15T14:24:27;19.75;;;4.75;;
74614;SDS011;63121;51.458;-0.110;2023-02-15T14:32:29;13.50;;;3.65;;
74614;SDS011;63121;51.458;-0.110;2023-02-15T14:35:03;14.73;;;3.70;;
74614;SDS011;63121;51.458;-0.110;2023-02-15T14:37:49;12.25;;;3.80;;
74614;SDS011;63121;51.458;-0.110;2023-02-15T14:40:18;13.45;;;4.55;;
74614;SDS011;63121;51.458;-0.110;2023-02-15T14:54:52;11.98;;;4.10;;
74614;SDS011;63121;51.458;-0.110;2023-02-15T14:59:27;14.90;;;4.18;;
74614;SDS011;63121;51.458;-0.110;2023-02-15T15:04:48;13.05;;;4.00;;
74614;SDS011;63121;51.458;-0.110;2023-02-15T15:07:36;16.92;;;4.80;;
74614;SDS011;63121;51.458;-0.110;2023-02-15T15:10:33;15.15;;;4.68;;
74614;SDS011;63121;51.458;-0.110;2023-02-15T15:12:58;10.32;;;3.80;;
74614;SDS011;63121;51.458;-0.110;2023-02-15T15:15:46;13.93;;;3.97;;
74614;SDS011;63121;51.458;-0.110;2023-02-15T15:30:52;14.32;;;4.10;;
74614;SDS011;63121;51.458;-0.110;2023-02-15T15:46:34;12.20;;;3.88;;
74614;SDS011;63121;51.458;-0.110;2023-02-15T15:49:13;11.45;;;4.05;;
74614;SDS011;63121;51.458;-0.110;2023-02-15T15:51:42;11.82;;;3.83;;
74614;SDS011;63121;51.458;-0.110;2023-02-15T15:54:13;12.80;;;4.20;;
74614;SDS011;63121;51.458;-0.110;2023-02-15T15:56:55;11.88;;;4.22;;
74614;SDS011;63121;51.458;-0.110;2023-02-15T15:59:36;13.32;;;4.07;;
74614;SDS011;63121;51.458;-0.110;2023-02-15T16:02:05;15.60;;;3.83;;
74614;SDS011;63121;51.458;-0.110;2023-02-15T16:04:32;16.50;;;4.55;;
74614;SDS011;63121;51.458;-0.110;2023-02-15T16:12:30;11.50;;;3.83;;
74614;SDS011;63121;51.458;-0.110;2023-02-15T16:15:00;12.18;;;3.97;;
74614;SDS011;63121;51.458;-0.110;2023-02-15T16:17:38;11.13;;;4.07;;
74614;SDS011;63121;51.458;-0.110;2023-02-15T16:20:17;9.52;;;3.90;;
74614;SDS011;63121;51.458;-0.110;2023-02-15T16:23:16;14.45;;;3.85;;
74614;SDS011;63121;51.458;-0.110;2023-02-15T16:28:50;11.02;;;3.85;;
74614;SDS011;63121;51.458;-0.110;2023-02-15T16:33:42;12.45;;;3.47;;
74614;SDS011;63121;51.458;-0.110;2023-02-15T16:36:10;10.27;;;3.65;;
74614;SDS011;63121;51.458;-0.110;2023-02-15T16:41:25;10.27;;;3.50;;
74614;SDS011;63121;51.458;-0.110;2023-02-15T16:43:54;12.98;;;3.83;;
74614;SDS011;63121;51.458;-0.110;2023-02-15T16:48:52;14.85;;;4.07;;
74614;SDS011;63121;51.458;-0.110;2023-02-15T16:51:22;11.63;;;3.95;;
74614;SDS011;63121;51.458;-0.110;2023-02-15T16:53:49;12.38;;;4.38;;
74614;SDS011;63121;51.458;-0.110;2023-02-15T16:56:22;13.77;;;4.30;;
74614;SDS011;63121;51.458;-0.110;2023-02-15T16:58:49;12.85;;;4.55;;
74614;SDS011;63121;51.458;-0.110;2023-02-15T17:01:17;14.77;;;4.72;;
74614;SDS011;63121;51.458;-0.110;2023-02-15T17:03:47;12.00;;;4.40;;
74614;SDS011;63121;51.458;-0.110;2023-02-15T17:06:21;14.27;;;4.55;;
74614;SDS011;63121;51.458;-0.110;2023-02-15T17:08:48;13.85;;;4.03;;
74614;SDS011;63121;51.458;-0.110;2023-02-15T17:13:39;12.97;;;4.23;;
74614;SDS011;63121;51.458;-0.110;2023-02-15T17:16:47;14.77;;;4.72;;
74614;SDS011;63121;51.458;-0.110;2023-02-15T17:19:16;13.98;;;4.38;;
74614;SDS011;63121;51.458;-0.110;2023-02-15T17:21:49;15.65;;;4.68;;
74614;SDS011;63121;51.458;-0.110;2023-02-15T17:24:21;13.60;;;4.50;;
74614;SDS011;63121;51.458;-0.110;2023-02-15T17:26:54;12.13;;;4.65;;
74614;SDS011;63121;51.458;-0.110;2023-02-15T17:31:51;12.60;;;4.10;;
74614;SDS011;63121;51.458;-0.110;2023-02-15T17:37:09;12.23;;;4.68;;
74614;SDS011;63121;51.458;-0.110;2023-02-15T17:39:37;13.68;;;4.88;;
74614;SDS011;63121;51.458;-0.110;2023-02-15T17:42:02;12.77;;;5.00;;
74614;SDS011;63121;51.458;-0.110;2023-02-15T17:44:28;13.45;;;5.55;;
74614;SDS011;63121;51.458;-0.110;2023-02-15T17:46:53;14.73;;;4.60;;
74614;SDS011;63121;51.458;-0.110;2023-02-15T17:49:27;13.93;;;5.05;;
74614;SDS011;63121;51.458;-0.110;2023-02-15T17:51:59;13.43;;;4.78;;
74614;SDS011;63121;51.458;-0.110;2023-02-15T17:54:27;18.65;;;4.97;;
74614;SDS011;63121;51.458;-0.110;2023-02-15T17:57:12;14.43;;;5.05;;
74614;SDS011;63121;51.458;-0.110;2023-02-15T17:59:39;14.15;;;5.47;;
74614;SDS011;63121;51.458;-0.110;2023-02-15T18:02:23;12.65;;;5.15;;
74614;SDS011;63121;51.458;-0.110;2023-02-15T18:05:11;20.80;;;6.05;;
74614;SDS011;63121;51.458;-0.110;2023-02-15T18:07:58;14.70;;;5.15;;
74614;SDS011;63121;51.458;-0.110;2023-02-15T18:10:43;13.77;;;5.05;;
74614;SDS011;63121;51.458;-0.110;2023-02-15T18:13:27;13.85;;;4.45;;
74614;SDS011;63121;51.458;-0.110;2023-02-15T18:15:52;14.85;;;4.32;;
74614;SDS011;63121;51.458;-0.110;2023-02-15T18:18:19;13.70;;;4.78;;
74614;SDS011;63121;51.458;-0.110;2023-02-15T18:20:45;11.13;;;4.28;;
74614;SDS011;63121;51.458;-0.110;2023-02-15T18:23:11;11.23;;;4.53;;
74614;SDS011;63121;51.458;-0.110;2023-02-15T18:25:38;14.13;;;4.35;;